Time;durP1;ratioP1;P1;durP2;ratioP2;P2;SDS_P1;SDS_P2;PMS_P1;PMS_P2;Temp;Humidity;BMP_temperature;BMP_pressure;BME280_temperature;BME280_humidity;BME280_pressure;Samples;Min_cycle;Max_cycle;Signal;HPM_P1;HPM_P2
2022/01/21 00:01:37;;;;;;;4.70;1.92;;;;;;;-0.28;92.33;100069.00;5002786;28;20025;-74
2022/01/21 00:04:03;;;;;;;5.80;1.83;;;;;;;-0.24;92.84;100083.81;5001845;28;20105;-74
2022/01/21 00:06:28;;;;;;;7.00;1.83;;;;;;;-0.42;93.19;100058.41;4992120;28;20469;-74
2022/01/21 00:08:54;;;;;;;5.40;2.35;;;;;;;-0.32;93.20;100063.97;5002628;28;20026;-74
2022/01/21 00:11:21;;;;;;;9.70;2.25;;;;;;;-0.27;93.76;100086.66;4975994;28;20034;-74
2022/01/21 00:13:46;;;;;;;6.82;2.38;;;;;;;-0.23;93.87;100092.63;4986002;28;20385;-74
2022/01/21 00:16:17;;;;;;;5.15;2.25;;;;;;;-0.25;94.13;100094.53;4992570;28;20088;-74
2022/01/21 00:18:51;;;;;;;6.45;1.70;;;;;;;-0.19;93.90;100101.25;4990707;28;20030;-74
2022/01/21 00:32:12;;;;;;;6.68;2.15;;;;;;;-0.11;92.52;100094.44;4991913;28;20036;-72
2022/01/21 00:34:37;;;;;;;6.40;2.10;;;;;;;-0.19;92.28;100064.00;5014099;28;20476;-72
2022/01/21 00:37:03;;;;;;;6.82;2.08;;;;;;;-0.04;92.09;100089.56;5016820;28;20403;-74
2022/01/21 00:39:31;;;;;;;10.40;2.67;;;;;;;-0.17;91.31;100062.09;4991052;28;20106;-74
2022/01/21 00:44:30;;;;;;;7.43;1.58;;;;;;;0.05;91.96;100094.25;4984543;28;20093;-74
2022/01/21 00:46:56;;;;;;;10.82;2.20;;;;;;;-0.12;91.26;100075.94;4990791;28;20062;-72
2022/01/21 00:49:21;;;;;;;9.43;1.85;;;;;;;-0.08;90.59;100069.44;4990962;28;20022;-73
2022/01/21 00:51:47;;;;;;;5.55;1.73;;;;;;;-0.02;91.51;100071.72;5015419;28;20137;-74
2022/01/21 00:54:13;;;;;;;8.18;2.00;;;;;;;0.03;91.56;100097.97;5011028;28;20041;-73
2022/01/21 00:56:38;;;;;;;10.52;2.00;;;;;;;-0.04;91.21;100089.56;5015509;28;20086;-73
2022/01/21 00:59:03;;;;;;;9.90;2.55;;;;;;;-0.02;90.48;100093.84;5016668;28;20053;-74
2022/01/21 01:01:28;;;;;;;8.25;2.17;;;;;;;0.11;89.97;100108.97;5015297;28;20077;-71
2022/01/21 01:03:54;;;;;;;7.88;1.90;;;;;;;0.07;90.28;100105.66;5015959;28;20049;-72
2022/01/21 01:06:19;;;;;;;13.00;1.98;;;;;;;0.04;90.63;100100.53;4999430;28;20033;-74
2022/01/21 01:08:44;;;;;;;14.43;1.90;;;;;;;0.10;90.29;100109.91;4992367;28;20481;-74
2022/01/21 01:21:43;;;;;;;8.73;2.28;;;;;;;-0.02;90.44;100116.94;4995660;28;20448;-72
2022/01/21 01:29:22;;;;;;;9.20;1.88;;;;;;;-0.12;91.45;100124.69;4996094;28;20092;-73
2022/01/21 01:31:49;;;;;;;9.90;2.65;;;;;;;-0.30;91.28;100101.97;4993115;28;20034;-74
2022/01/21 01:34:15;;;;;;;7.30;2.17;;;;;;;-0.24;91.14;100115.72;5002541;28;20452;-73
2022/01/21 01:36:43;;;;;;;11.07;2.03;;;;;;;-0.11;91.24;100125.53;4995731;28;20023;-73
2022/01/21 01:42:29;;;;;;;6.70;2.15;;;;;;;-0.12;91.46;100114.03;4996208;28;20041;-72
2022/01/21 01:50:30;;;;;;;10.40;2.10;;;;;;;-0.28;93.84;100111.53;4995564;28;20448;-71
2022/01/21 01:52:55;;;;;;;8.50;2.42;;;;;;;-0.40;94.17;100095.56;4998118;28;20026;-71
2022/01/21 01:55:21;;;;;;;7.38;2.33;;;;;;;-0.41;94.45;100092.03;4994972;28;20503;-72
2022/01/21 01:57:47;;;;;;;13.55;2.35;;;;;;;-0.33;94.70;100112.81;4992973;28;20068;-73
2022/01/21 02:00:12;;;;;;;7.38;2.47;;;;;;;-0.35;95.16;100099.59;4994145;28;20111;-73
2022/01/21 02:02:38;;;;;;;9.68;2.30;;;;;;;-0.38;95.85;100091.84;4994417;28;20014;-72
2022/01/21 02:05:03;;;;;;;6.07;2.33;;;;;;;-0.53;96.30;100085.72;4993522;28;20480;-71
2022/01/21 02:07:29;;;;;;;12.02;2.40;;;;;;;-0.53;97.46;100101.66;4989916;28;20453;-73
2022/01/21 02:09:54;;;;;;;8.63;3.58;;;;;;;-0.75;97.48;100088.09;5000160;28;20033;-73
2022/01/21 02:12:19;;;;;;;7.75;2.92;;;;;;;-0.80;98.40;100095.50;4996622;28;20026;-72
2022/01/21 02:14:50;;;;;;;7.68;2.33;;;;;;;-0.96;99.33;100117.75;4993167;28;20026;-71
2022/01/21 02:22:49;;;;;;;9.00;2.20;;;;;;;-1.03;100.00;100123.53;4990927;28;20049;-73
2022/01/21 02:25:20;;;;;;;8.88;2.17;;;;;;;-1.14;100.00;100108.28;5007472;28;20026;-71
2022/01/21 02:27:47;;;;;;;10.18;2.00;;;;;;;-1.12;100.00;100123.19;5013106;28;20144;-73
2022/01/21 02:30:18;;;;;;;6.38;2.20;;;;;;;-1.08;100.00;100128.28;5002463;28;20038;-73
2022/01/21 02:32:55;;;;;;;13.30;2.28;;;;;;;-1.12;100.00;100128.50;4992894;28;20095;-73
2022/01/21 02:35:21;;;;;;;7.95;1.83;;;;;;;-1.16;100.00;100116.34;4993106;28;20096;-73
2022/01/21 02:37:47;;;;;;;11.25;2.55;;;;;;;-0.95;99.23;100123.91;4993266;28;20030;-71
2022/01/21 02:40:14;;;;;;;6.72;1.90;;;;;;;-0.94;97.52;100101.72;4994862;28;20045;-71
2022/01/21 02:42:40;;;;;;;11.60;2.03;;;;;;;-0.79;96.70;100124.63;4994269;28;20552;-71
2022/01/21 02:45:07;;;;;;;10.50;2.03;;;;;;;-0.79;95.87;100107.84;5001132;28;20026;-71
2022/01/21 02:47:32;;;;;;;9.32;2.13;;;;;;;-0.71;95.27;100109.06;5001825;28;20388;-71
2022/01/21 02:49:57;;;;;;;11.05;1.90;;;;;;;-0.60;94.69;100124.31;5013885;28;20026;-71
2022/01/21 02:52:26;;;;;;;9.00;2.40;;;;;;;-0.58;94.33;100132.16;4998576;28;20105;-72
2022/01/21 02:54:51;;;;;;;12.43;2.03;;;;;;;-0.58;94.76;100132.16;4993939;28;20033;-72
2022/01/21 02:57:17;;;;;;;11.00;2.25;;;;;;;-0.55;94.06;100129.31;5007367;28;20108;-71
2022/01/21 02:59:42;;;;;;;8.63;1.92;;;;;;;-0.71;94.36;100125.00;5044190;22;20052;-74
2022/01/21 03:02:08;;;;;;;8.40;2.17;;;;;;;-0.64;94.35;100144.06;5033771;28;20025;-71
2022/01/21 03:04:46;;;;;;;6.93;1.90;;;;;;;-0.92;94.54;100099.78;5034458;28;20033;-71
2022/01/21 03:07:11;;;;;;;7.03;2.20;;;;;;;-0.75;94.80;100142.09;5032595;28;20104;-73
2022/01/21 03:09:36;;;;;;;6.28;2.50;;;;;;;-0.82;94.92;100131.94;5033666;28;20033;-74
2022/01/21 03:12:02;;;;;;;14.45;2.63;;;;;;;-0.94;95.58;100117.66;5034365;28;20029;-72
2022/01/21 03:14:28;;;;;;;8.18;2.13;;;;;;;-0.84;95.34;100142.66;5036220;28;20053;-72
2022/01/21 03:16:53;;;;;;;7.50;2.35;;;;;;;-0.87;95.80;100137.53;5016616;28;20708;-72
2022/01/21 03:19:18;;;;;;;7.53;1.77;;;;;;;-0.96;95.85;100128.38;5015900;28;20049;-72
2022/01/21 03:21:44;;;;;;;7.35;2.00;;;;;;;-1.01;95.70;100103.06;5015320;28;20061;-72
2022/01/21 03:24:09;;;;;;;8.43;2.10;;;;;;;-0.65;94.94;100146.81;5034036;28;20064;-72
2022/01/21 03:26:34;;;;;;;8.60;2.42;;;;;;;-0.78;94.49;100125.50;5034570;28;20100;-73
2022/01/21 03:29:02;;;;;;;8.25;2.47;;;;;;;-0.74;94.97;100146.44;5037545;28;20033;-73
2022/01/21 03:31:29;;;;;;;16.20;2.33;;;;;;;-0.73;94.95;100153.47;5033227;28;20038;-73
2022/01/21 03:33:59;;;;;;;11.15;2.42;;;;;;;-0.77;94.81;100148.44;5038436;28;20029;-73
2022/01/21 03:36:25;;;;;;;5.47;2.00;;;;;;;-0.69;95.07;100162.94;5057868;28;20056;-73
2022/01/21 03:38:50;;;;;;;13.02;2.38;;;;;;;-0.90;95.26;100121.81;5045091;28;20040;-74
2022/01/21 03:41:15;;;;;;;13.13;2.30;;;;;;;-0.64;95.20;100164.47;5027089;28;20117;-73
2022/01/21 03:43:41;;;;;;;8.63;2.50;;;;;;;-0.90;94.97;100116.50;5033035;28;20029;-73
2022/01/21 03:46:06;;;;;;;8.40;2.17;;;;;;;-0.68;95.57;100167.31;5017302;28;20021;-73
2022/01/21 03:48:33;;;;;;;7.03;2.10;;;;;;;-0.78;95.13;100149.41;5044832;28;20017;-73
2022/01/21 03:50:58;;;;;;;8.27;2.25;;;;;;;-0.63;95.28;100177.63;5057006;28;20060;-73
2022/01/21 03:53:23;;;;;;;10.93;2.35;;;;;;;-0.83;95.55;100144.38;5032930;28;20062;-73
2022/01/21 03:55:49;;;;;;;13.40;2.28;;;;;;;-0.69;94.88;100168.25;5039853;28;20101;-74
2022/01/21 03:58:15;;;;;;;8.95;2.22;;;;;;;-0.64;95.70;100169.78;5023506;28;20022;-74
2022/01/21 04:00:46;;;;;;;13.80;1.98;;;;;;;-0.64;94.87;100164.47;5033254;28;20032;-74
2022/01/21 04:03:12;;;;;;;8.20;2.05;;;;;;;-0.70;94.81;100163.91;5019478;28;20041;-74
2022/01/21 04:05:38;;;;;;;9.98;2.28;;;;;;;-0.88;95.35;100149.13;5032768;28;20033;-74
2022/01/21 04:08:05;;;;;;;6.68;1.95;;;;;;;-1.00;95.83;100137.47;5031245;28;20021;-74
2022/01/21 04:10:30;;;;;;;11.57;2.25;;;;;;;-0.99;96.12;100143.66;5016612;28;20072;-73
2022/01/21 04:12:56;;;;;;;10.52;2.38;;;;;;;-1.28;95.72;100122.44;5032631;28;20049;-74
2022/01/21 04:15:22;;;;;;;7.78;2.47;;;;;;;-1.04;95.63;100182.94;5032522;28;20510;-76
2022/01/21 04:17:48;;;;;;;9.00;2.38;;;;;;;-1.21;95.96;100168.03;5030695;28;20099;-76
2022/01/21 04:20:14;;;;;;;11.25;2.25;;;;;;;-1.35;96.53;100151.16;5015125;28;20487;-74
2022/01/21 04:22:40;;;;;;;10.07;2.20;;;;;;;-1.13;97.15;100185.22;5029876;28;20488;-77
2022/01/21 04:25:06;;;;;;;9.00;2.58;;;;;;;-1.39;97.38;100156.75;5016718;28;20021;-76
2022/01/21 04:27:32;;;;;;;13.52;2.40;;;;;;;-1.18;97.33;100189.06;5023091;28;20562;-74
2022/01/21 04:29:57;;;;;;;12.45;3.30;;;;;;;-1.58;96.97;100147.25;5035991;28;20017;-75
2022/01/21 04:32:22;;;;;;;4.88;2.00;;;;;;;-1.55;97.64;100165.66;5036183;28;20493;-76
2022/01/21 04:34:48;;;;;;;6.65;2.55;;;;;;;-1.32;97.87;100196.09;5016905;28;20037;-75
2022/01/21 04:37:15;;;;;;;7.35;2.60;;;;;;;-1.47;98.27;100161.66;5012521;28;20030;-75
2022/01/21 04:39:49;;;;;;;13.88;2.83;;;;;;;-1.25;98.48;100190.44;5014234;28;20038;-76
2022/01/21 04:47:32;;;;;;;9.80;2.42;;;;;;;-1.02;97.16;100200.47;5033946;28;20044;-76
2022/01/21 04:49:57;;;;;;;13.43;3.00;;;;;;;-1.27;97.15;100157.81;5034637;28;20962;-77
2022/01/21 04:52:23;;;;;;;11.35;2.97;;;;;;;-1.11;96.79;100167.34;5030454;28;20029;-76
2022/01/21 04:54:49;;;;;;;8.90;3.20;;;;;;;-1.32;96.00;100123.56;5038233;28;20393;-75
2022/01/21 04:57:15;;;;;;;14.18;3.13;;;;;;;-0.88;96.18;100194.31;5017215;28;20127;-74
2022/01/21 04:59:41;;;;;;;12.52;3.22;;;;;;;-0.96;96.09;100173.53;5020682;28;20128;-82
2022/01/21 05:02:07;;;;;;;9.98;3.08;;;;;;;-0.78;95.95;100211.38;5062406;28;20031;-82
2022/01/21 05:04:33;;;;;;;12.45;3.08;;;;;;;-0.78;95.84;100216.69;5025331;28;20060;-74
2022/01/21 05:07:01;;;;;;;6.28;2.63;;;;;;;-1.11;95.64;100158.53;5020464;28;20033;-78
2022/01/21 05:09:31;;;;;;;9.73;2.97;;;;;;;-0.84;95.67;100201.13;5034778;28;20040;-74
2022/01/21 05:11:58;;;;;;;9.48;3.05;;;;;;;-0.84;95.69;100197.59;5047174;28;20422;-76
2022/01/21 05:14:47;;;;;;;11.50;3.30;;;;;;;-0.89;95.10;100182.84;5019241;28;20113;-74
2022/01/21 05:17:14;;;;;;;9.10;3.13;;;;;;;-0.69;94.37;100186.88;5038665;28;20083;-77
2022/01/21 05:19:40;;;;;;;7.97;2.65;;;;;;;-0.52;93.43;100222.16;5020025;28;20030;-76
2022/01/21 05:22:05;;;;;;;10.25;2.90;;;;;;;-0.49;93.20;100222.81;5020358;28;20022;-74
2022/01/21 05:24:31;;;;;;;15.10;2.88;;;;;;;-0.47;93.14;100225.38;5017709;28;20037;-73
2022/01/21 05:26:58;;;;;;;12.52;3.10;;;;;;;-0.65;92.77;100194.66;5036092;28;20060;-74
2022/01/21 05:29:27;;;;;;;10.85;2.88;;;;;;;-0.48;93.10;100232.50;5016434;28;20453;-75
2022/01/21 05:31:53;;;;;;;14.88;2.65;;;;;;;-0.53;93.71;100237.25;5036303;28;20029;-77
2022/01/21 05:34:19;;;;;;;8.80;2.83;;;;;;;-0.64;93.73;100222.94;5036391;28;20032;-78
2022/01/21 05:36:45;;;;;;;10.30;2.67;;;;;;;-0.57;93.50;100230.44;5013797;28;20018;-78
2022/01/21 05:39:12;;;;;;;11.60;2.70;;;;;;;-0.83;93.71;100200.19;5022740;28;20036;-77
2022/01/21 05:41:39;;;;;;;9.45;3.15;;;;;;;-0.98;94.00;100186.03;5021954;28;20460;-80
2022/01/21 05:44:13;;;;;;;10.82;3.10;;;;;;;-0.79;94.21;100214.13;5023554;28;20029;-80
2022/01/21 05:46:55;;;;;;;10.63;3.05;;;;;;;-0.70;93.97;100235.66;5034793;28;20053;-79
2022/01/21 05:49:22;;;;;;;12.73;3.10;;;;;;;-0.60;93.55;100245.69;5018867;28;20502;-79
2022/01/21 05:51:48;;;;;;;15.35;2.50;;;;;;;-0.54;93.26;100261.28;5035573;28;20037;-77
2022/01/21 05:54:13;;;;;;;11.52;2.47;;;;;;;-0.55;93.07;100243.59;5026106;28;20024;-79
2022/01/21 05:56:39;;;;;;;9.73;3.00;;;;;;;-1.01;92.78;100170.31;5023367;28;20025;-77
2022/01/21 05:59:06;;;;;;;13.35;3.00;;;;;;;-0.50;93.08;100263.66;5019794;28;20029;-71
2022/01/21 06:01:33;;;;;;;14.38;3.35;;;;;;;-0.53;93.38;100261.16;5017753;28;20024;-75
2022/01/21 06:03:59;;;;;;;12.25;3.20;;;;;;;-0.57;93.31;100250.84;5033332;28;20025;-72
2022/01/21 06:06:24;;;;;;;11.40;3.00;;;;;;;-0.68;93.59;100252.38;5026401;28;20476;-74
2022/01/21 06:08:50;;;;;;;9.02;2.70;;;;;;;-0.47;93.74;100273.25;5016843;28;20383;-69
2022/01/21 06:11:16;;;;;;;9.13;3.15;;;;;;;-0.56;94.05;100274.66;5034120;28;20022;-79
2022/01/21 06:13:44;;;;;;;10.23;2.92;;;;;;;-0.60;94.40;100277.59;5033752;28;20032;-77
2022/01/21 06:16:09;;;;;;;9.00;2.95;;;;;;;-0.76;94.69;100244.03;5018350;28;20026;-75
2022/01/21 06:18:35;;;;;;;15.15;4.18;;;;;;;-0.63;95.25;100268.00;5035823;28;20103;-73
2022/01/21 06:21:00;;;;;;;7.90;3.55;;;;;;;-0.80;95.42;100255.78;5017453;28;20033;-72
2022/01/21 06:23:26;;;;;;;9.68;3.67;;;;;;;-0.91;95.55;100255.59;5017085;28;20523;-74
2022/01/21 06:25:52;;;;;;;7.47;3.78;;;;;;;-0.73;95.79;100299.63;5032950;28;20025;-80
2022/01/21 06:28:18;;;;;;;12.27;3.75;;;;;;;-0.91;96.30;100274.19;5018519;28;20026;-76
2022/01/21 06:30:43;;;;;;;17.75;3.88;;;;;;;-0.70;96.17;100309.22;5014994;28;20034;-78
2022/01/21 06:33:09;;;;;;;13.52;3.10;;;;;;;-0.82;95.58;100278.09;5015288;28;20029;-79
2022/01/21 06:35:34;;;;;;;8.90;3.47;;;;;;;-1.03;95.84;100259.00;5026440;28;20431;-75
2022/01/21 06:38:00;;;;;;;8.50;3.83;;;;;;;-0.88;95.94;100292.59;5014245;28;20500;-70
2022/01/21 06:40:25;;;;;;;8.93;3.33;;;;;;;-0.82;95.66;100297.53;5036026;28;20131;-78
2022/01/21 06:43:01;;;;;;;14.02;4.18;;;;;;;-0.83;95.98;100295.00;5017729;28;20029;-77
2022/01/21 06:45:26;;;;;;;7.70;3.92;;;;;;;-0.77;96.18;100319.38;5017447;28;20409;-77
2022/01/21 06:47:52;;;;;;;7.60;3.17;;;;;;;-0.77;96.37;100308.72;5017434;28;20112;-77
2022/01/21 06:50:17;;;;;;;12.50;3.42;;;;;;;-0.84;96.46;100295.91;5033575;28;20021;-72
2022/01/21 06:52:42;;;;;;;10.40;3.70;;;;;;;-0.77;96.56;100303.41;5049875;28;20035;-75
2022/01/21 06:55:08;;;;;;;8.95;3.80;;;;;;;-0.95;96.61;100278.81;5023641;28;20115;-76
2022/01/21 06:57:38;;;;;;;13.52;4.07;;;;;;;-0.99;96.44;100266.69;5018271;28;20540;-73
2022/01/21 07:00:09;;;;;;;10.90;3.83;;;;;;;-0.82;96.60;100294.03;5033152;28;20021;-75
2022/01/21 07:02:35;;;;;;;14.00;3.47;;;;;;;-0.82;96.24;100294.88;5029196;28;20367;-75
2022/01/21 07:05:00;;;;;;;15.00;5.00;;;;;;;-0.87;96.67;100259.75;5011929;28;20028;-72
2022/01/21 07:08:22;;;;;;;13.38;5.40;;;;;;;-0.83;97.09;100281.69;5046885;28;20164;-79
2022/01/21 07:11:07;;;;;;;15.52;5.13;;;;;;;-0.96;97.34;100274.47;5020965;28;20030;-78
2022/01/21 07:13:34;;;;;;;12.88;5.28;;;;;;;-0.81;97.20;100290.41;5033129;28;20022;-77
2022/01/21 07:16:00;;;;;;;19.15;6.47;;;;;;;-0.76;96.27;100297.19;5021554;28;20025;-81
2022/01/21 07:18:25;;;;;;;11.45;5.05;;;;;;;-0.89;95.71;100277.63;5018883;28;20402;-76
2022/01/21 07:20:50;;;;;;;12.30;4.45;;;;;;;-0.62;93.88;100306.09;5033398;28;20506;-78
2022/01/21 07:23:16;;;;;;;15.63;4.35;;;;;;;-0.58;94.15;100291.66;5015719;28;20372;-78
2022/01/21 07:25:41;;;;;;;12.77;4.80;;;;;;;-0.43;93.84;100296.00;5032477;28;20033;-75
2022/01/21 07:28:16;;;;;;;12.50;3.75;;;;;;;-0.42;93.65;100291.53;5034779;28;20176;-85
2022/01/21 07:30:41;;;;;;;10.32;3.25;;;;;;;-0.12;93.25;100318.00;5048948;28;20032;-79
2022/01/21 07:33:08;;;;;;;8.32;3.70;;;;;;;-0.12;91.45;100310.03;5019103;28;20033;-79
2022/01/21 07:35:46;;;;;;;8.60;4.35;;;;;;;-0.28;91.63;100295.03;5039977;28;20029;-79
2022/01/21 07:38:12;;;;;;;14.65;5.35;;;;;;;-0.35;92.05;100295.53;5020172;28;20403;-79
2022/01/21 07:40:38;;;;;;;17.67;4.68;;;;;;;-0.31;92.49;100289.94;5010246;28;20097;-77
2022/01/21 07:43:04;;;;;;;18.30;5.10;;;;;;;-0.34;92.34;100281.28;5042361;28;20026;-83
2022/01/21 07:45:29;;;;;;;21.63;6.85;;;;;;;-0.18;92.11;100313.06;5022720;28;20030;-80
2022/01/21 07:47:55;;;;;;;12.38;4.97;;;;;;;-0.05;91.62;100322.84;5018754;28;20018;-75
2022/01/21 07:50:20;;;;;;;10.40;4.75;;;;;;;0.02;91.25;100323.28;5033695;28;20113;-72
2022/01/21 07:52:46;;;;;;;15.55;4.55;;;;;;;-0.05;91.08;100314.84;5046412;28;20021;-74
2022/01/21 07:55:11;;;;;;;11.48;4.05;;;;;;;-0.08;91.28;100316.84;5030818;28;20040;-74
2022/01/21 07:57:37;;;;;;;15.30;5.28;;;;;;;-0.09;90.92;100299.19;5034185;28;20028;-74
2022/01/21 08:00:04;;;;;;;13.35;4.30;;;;;;;-0.06;89.99;100302.50;5031320;28;20041;-74
2022/01/21 08:02:31;;;;;;;11.95;4.53;;;;;;;0.07;89.88;100310.53;5031405;28;20555;-74
2022/01/21 08:04:57;;;;;;;9.77;3.38;;;;;;;0.25;89.74;100312.97;5034602;28;20116;-75
2022/01/21 08:07:22;;;;;;;10.93;3.65;;;;;;;0.48;88.27;100319.44;5038077;28;20025;-75
2022/01/21 08:09:49;;;;;;;15.73;4.78;;;;;;;0.27;86.87;100279.13;5019734;28;20407;-82
2022/01/21 08:12:16;;;;;;;12.43;4.53;;;;;;;0.61;86.29;100328.31;5028609;28;20026;-77
2022/01/21 08:14:43;;;;;;;14.68;4.10;;;;;;;0.53;86.59;100317.34;5022354;28;20133;-77
2022/01/21 08:17:08;;;;;;;15.40;4.18;;;;;;;0.57;86.37;100321.47;5022299;28;20491;-73
2022/01/21 08:19:33;;;;;;;11.07;3.80;;;;;;;0.50;86.54;100304.19;5018444;28;20039;-76
2022/01/21 08:21:59;;;;;;;14.30;4.07;;;;;;;0.74;86.09;100325.69;5015223;28;20116;-80
2022/01/21 08:24:24;;;;;;;10.38;4.82;;;;;;;0.73;86.10;100323.97;5008903;28;20041;-78
2022/01/21 08:27:00;;;;;;;13.75;4.57;;;;;;;0.63;86.44;100340.59;5036529;28;20049;-81
2022/01/21 08:29:26;;;;;;;10.30;4.20;;;;;;;0.40;87.41;100322.63;5017876;28;20415;-77
2022/01/21 08:31:51;;;;;;;13.45;4.70;;;;;;;0.48;86.67;100316.78;5049890;28;20033;-77
2022/01/21 08:34:16;;;;;;;12.63;4.80;;;;;;;0.36;86.77;100286.47;5033443;28;20040;-82
2022/01/21 08:36:44;;;;;;;13.43;4.10;;;;;;;0.27;86.65;100252.50;5020615;28;20033;-72
2022/01/21 08:39:09;;;;;;;11.07;5.20;;;;;;;0.38;86.99;100277.44;5038219;28;20036;-78
2022/01/21 08:42:00;;;;;;;12.27;4.15;;;;;;;0.18;85.07;100216.69;5021376;28;20029;-77
2022/01/21 08:45:12;;;;;;;13.15;4.00;;;;;;;0.78;85.41;100316.53;4942088;29;20039;-79
2022/01/21 08:47:40;;;;;;;8.40;4.40;;;;;;;0.73;84.71;100292.00;4932517;29;20403;-76
2022/01/21 08:50:09;;;;;;;17.00;5.30;;;;;;;0.85;84.56;100301.84;5000396;28;20564;-78
2022/01/21 08:52:38;;;;;;;11.70;2.85;;;;;;;1.14;83.76;100306.97;5034801;28;20280;-79
2022/01/21 08:55:05;;;;;;;8.57;2.85;;;;;;;1.44;81.84;100314.63;5048372;28;20487;-81
2022/01/21 08:57:32;;;;;;;13.32;3.72;;;;;;;1.67;81.59;100337.03;5015581;28;20049;-69
2022/01/21 08:59:58;;;;;;;9.68;3.45;;;;;;;2.31;78.38;100335.06;5047830;23;20045;-75
2022/01/21 09:02:24;;;;;;;17.33;4.40;;;;;;;2.45;75.86;100331.38;5049777;28;20112;-74
2022/01/21 09:04:49;;;;;;;10.45;3.28;;;;;;;2.19;77.15;100336.81;5054223;28;20033;-74
2022/01/21 09:07:17;;;;;;;9.07;3.72;;;;;;;2.18;77.03;100342.28;5052396;28;20040;-73
2022/01/21 09:09:43;;;;;;;19.38;4.28;;;;;;;1.96;78.30;100359.84;5040680;28;20796;-78
2022/01/21 09:12:08;;;;;;;11.70;4.68;;;;;;;1.91;79.27;100372.66;5030173;28;20086;-75
2022/01/21 09:14:34;;;;;;;19.60;4.75;;;;;;;1.85;79.15;100364.22;5030172;28;20037;-73
2022/01/21 09:17:00;;;;;;;14.27;5.00;;;;;;;1.75;79.64;100361.34;5014410;28;20022;-76
2022/01/21 09:19:25;;;;;;;15.63;4.32;;;;;;;1.72;79.56;100346.41;5025517;28;20051;-77
2022/01/21 09:21:51;;;;;;;17.00;5.68;;;;;;;1.84;79.44;100339.38;5023470;28;20439;-76
2022/01/21 09:24:18;;;;;;;17.38;4.10;;;;;;;2.02;79.21;100331.84;5029521;28;20033;-76
2022/01/21 09:26:44;;;;;;;10.65;4.10;;;;;;;2.18;77.03;100339.59;5017582;28;20059;-74
2022/01/21 09:29:10;;;;;;;12.88;4.38;;;;;;;1.93;77.54;100301.31;5023395;28;20021;-76
2022/01/21 09:31:37;;;;;;;16.38;4.55;;;;;;;2.46;76.06;100338.41;5033936;28;20489;-76
2022/01/21 09:34:05;;;;;;;14.10;4.95;;;;;;;2.83;75.66;100352.56;5025509;28;20088;-74
2022/01/21 09:36:30;;;;;;;13.93;5.20;;;;;;;3.03;75.00;100356.38;5024036;28;20029;-72
2022/01/21 09:38:56;;;;;;;9.57;4.35;;;;;;;3.03;73.96;100339.47;5038652;28;20104;-77
2022/01/21 09:41:22;;;;;;;16.98;4.55;;;;;;;3.06;73.70;100360.63;5028266;28;20048;-72
2022/01/21 09:43:49;;;;;;;12.63;4.60;;;;;;;2.73;74.71;100380.09;5032146;28;20483;-76
2022/01/21 09:46:15;;;;;;;12.70;4.65;;;;;;;2.29;76.23;100361.03;5027109;28;20028;-76
2022/01/21 09:49:05;;;;;;;13.13;4.35;;;;;;;2.03;75.98;100386.94;5036854;28;20108;-76
2022/01/21 09:51:31;;;;;;;12.63;4.07;;;;;;;1.77;77.30;100380.78;5038739;28;20116;-77
2022/01/21 09:54:00;;;;;;;16.42;4.10;;;;;;;1.71;78.66;100387.41;5028296;28;20053;-77
2022/01/21 09:56:26;;;;;;;14.85;4.45;;;;;;;1.46;79.37;100366.06;5021936;28;20057;-77
2022/01/21 09:58:52;;;;;;;10.95;4.10;;;;;;;1.48;79.36;100391.66;5017658;28;20065;-78
2022/01/21 10:01:18;;;;;;;12.73;4.00;;;;;;;1.53;80.21;100400.22;5021307;28;20499;-74
2022/01/21 10:03:44;;;;;;;12.27;3.90;;;;;;;1.42;80.23;100388.59;5028582;28;20120;-75
2022/01/21 10:06:12;;;;;;;14.40;4.05;;;;;;;1.36;80.21;100381.84;5023912;28;20112;-76
2022/01/21 10:08:41;;;;;;;11.82;4.10;;;;;;;1.55;80.88;100394.78;5020393;28;20484;-72
2022/01/21 10:11:07;;;;;;;14.88;4.47;;;;;;;1.62;78.47;100400.53;5022526;28;20026;-73
2022/01/21 10:13:34;;;;;;;12.40;3.35;;;;;;;1.60;79.00;100381.09;5036902;28;20032;-79
2022/01/21 10:16:02;;;;;;;12.18;3.58;;;;;;;1.85;77.66;100385.56;5026990;28;20514;-75
2022/01/21 10:18:27;;;;;;;8.55;3.67;;;;;;;1.61;78.16;100381.00;5030289;28;20036;-74
2022/01/21 10:21:06;;;;;;;13.23;3.75;;;;;;;1.72;78.11;100382.91;5031661;28;20033;-76
2022/01/21 10:23:34;;;;;;;;;;;;;;;1.84;77.22;100390.06;5033304;28;20375;-76
2022/01/21 10:26:06;;;;;;;9.77;3.35;;;;;;;2.10;76.80;100392.69;5036495;28;19948;-74
2022/01/21 10:28:33;;;;;;;13.52;3.03;;;;;;;2.19;76.13;100392.03;5017007;28;20022;-75
2022/01/21 10:31:06;;;;;;;10.10;3.15;;;;;;;2.31;76.01;100383.13;5022025;28;20365;-78
2022/01/21 10:33:32;;;;;;;8.68;3.47;;;;;;;2.40;76.98;100384.28;5031603;28;20111;-75
2022/01/21 10:36:21;;;;;;;14.65;3.72;;;;;;;2.87;74.27;100381.72;5014556;28;20476;-74
2022/01/21 10:39:11;;;;;;;11.55;3.17;;;;;;;2.96;72.69;100363.19;5021388;28;20513;-75
2022/01/21 10:41:43;;;;;;;9.40;3.10;;;;;;;3.21;72.65;100385.38;5051446;28;20056;-75
2022/01/21 10:44:12;;;;;;;19.20;3.30;;;;;;;2.97;73.08;100374.72;5048134;28;20021;-74
2022/01/21 10:46:38;;;;;;;;;;;;;;;2.99;74.00;100381.66;5040935;28;20024;-74
2022/01/21 10:49:11;;;;;;;10.38;3.55;;;;;;;2.89;72.01;100363.75;5045578;28;19984;-73
2022/01/21 10:51:40;;;;;;;13.00;4.00;;;;;;;2.93;73.38;100390.13;5032056;28;20038;-73
2022/01/21 10:54:23;;;;;;;13.07;3.50;;;;;;;2.77;74.48;100376.19;5025809;28;20034;-73
2022/01/21 10:57:11;;;;;;;7.03;2.83;;;;;;;2.87;74.41;100376.38;5020338;28;20030;-75
2022/01/21 10:59:57;;;;;;;10.10;3.05;;;;;;;2.71;74.13;100376.66;5023257;28;20026;-73
2022/01/21 11:02:34;;;;;;;8.50;2.92;;;;;;;2.80;74.33;100382.19;5014868;28;20411;-73
2022/01/21 11:05:14;;;;;;;9.63;2.60;;;;;;;2.69;74.19;100368.75;5032391;28;20068;-73
2022/01/21 11:08:07;;;;;;;11.88;3.00;;;;;;;2.82;74.29;100361.53;5014388;28;20025;-73
2022/01/21 11:10:36;;;;;;;9.25;3.00;;;;;;;2.82;74.07;100372.22;5019428;28;20033;-72
2022/01/21 11:13:13;;;;;;;9.87;2.93;;;;;;;2.72;74.42;100373.88;5013525;28;20022;-73
2022/01/21 11:15:41;;;;;;;9.98;3.17;;;;;;;2.66;73.97;100369.00;5029439;28;20647;-73
2022/01/21 11:18:09;;;;;;;16.25;3.20;;;;;;;2.59;74.81;100352.56;5015956;28;20026;-73
2022/01/21 11:20:40;;;;;;;7.78;2.80;;;;;;;2.66;75.34;100346.78;5009635;28;20029;-73
2022/01/21 11:23:08;;;;;;;11.38;2.75;;;;;;;2.73;74.38;100359.56;5019788;28;20056;-70
2022/01/21 11:26:01;;;;;;;11.25;3.95;;;;;;;2.76;74.53;100353.97;5007686;28;20025;-69
2022/01/21 11:28:46;;;;;;;18.23;3.30;;;;;;;2.55;75.25;100344.91;5007013;28;20040;-69
2022/01/21 11:31:14;;;;;;;17.48;4.85;;;;;;;2.50;75.47;100358.59;5018320;28;20120;-69
2022/01/21 11:33:39;;;;;;;11.45;3.72;;;;;;;2.45;75.77;100349.22;5024419;28;20033;-69
2022/01/21 11:36:06;;;;;;;13.75;2.90;;;;;;;2.40;75.88;100336.19;5015284;28;20487;-69
2022/01/21 11:38:37;;;;;;;11.90;2.75;;;;;;;2.48;75.32;100348.97;5023452;28;20033;-69
2022/01/21 11:41:05;;;;;;;9.18;3.65;;;;;;;2.48;75.77;100349.81;5020444;28;20041;-70
2022/01/21 11:43:33;;;;;;;8.35;2.80;;;;;;;2.39;75.36;100348.69;5017470;28;20037;-70
2022/01/21 11:48:52;;;;;;;9.50;3.20;;;;;;;1.38;76.09;100217.28;5032293;28;20377;-71
2022/01/21 11:51:26;;;;;;;11.10;3.50;;;;;;;2.48;76.26;100357.00;5031194;28;20033;-73
2022/01/21 11:53:56;;;;;;;13.77;3.10;;;;;;;2.39;75.54;100346.03;5036416;28;20009;-72
2022/01/21 11:56:32;;;;;;;15.60;3.35;;;;;;;2.51;76.05;100348.75;5042975;28;20025;-74
2022/01/21 11:59:09;;;;;;;8.85;2.70;;;;;;;2.80;75.12;100347.44;5052019;28;20013;-73
2022/01/21 12:01:46;;;;;;;9.45;2.40;;;;;;;2.89;74.83;100337.88;5035494;28;20041;-74
2022/01/21 12:04:11;;;;;;;7.30;2.72;;;;;;;3.09;72.73;100304.25;5023869;28;20021;-72
2022/01/21 12:06:37;;;;;;;10.48;2.63;;;;;;;3.05;71.47;100292.09;5013660;28;20103;-73
2022/01/21 12:09:04;;;;;;;10.20;2.85;;;;;;;2.92;72.45;100299.34;5018889;28;20100;-73
2022/01/21 12:11:37;;;;;;;13.20;2.80;;;;;;;3.23;72.30;100320.09;5029055;28;20025;-73
2022/01/21 12:14:21;;;;;;;13.55;2.42;;;;;;;3.28;71.88;100323.25;5021865;28;20372;-75
2022/01/21 12:16:53;;;;;;;8.82;2.33;;;;;;;3.02;72.26;100314.56;5010615;28;20428;-73
2022/01/21 12:19:27;;;;;;;9.80;2.28;;;;;;;2.91;72.97;100317.22;5010336;28;20041;-70
2022/01/21 12:21:54;;;;;;;11.00;2.50;;;;;;;2.88;72.92;100312.09;5014200;28;20488;-71